createdAt,value
2019-03-30T00:00:51.588Z,293.29
2019-03-30T00:01:51.935Z,292.87
2019-03-30T00:02:52.400Z,292.30
2019-03-30T00:03:52.599Z,292.68
2019-03-30T00:04:52.953Z,292.33
2019-03-30T00:05:53.272Z,292.13
2019-03-30T00:06:53.609Z,292.80
2019-03-30T00:07:53.951Z,292.52
2019-03-30T00:08:54.283Z,291.70
2019-03-30T00:09:54.648Z,292.40
2019-03-30T00:10:55.086Z,292.76
2019-03-30T00:11:57.718Z,293.45
2019-03-30T00:12:55.655Z,293.11
2019-03-30T00:13:55.975Z,292.98
2019-03-30T00:14:56.304Z,292.33
2019-03-30T00:15:56.649Z,292.60
2019-03-30T00:16:56.998Z,292.45
2019-03-30T00:17:57.351Z,292.49
2019-03-30T00:18:57.716Z,291.66
2019-03-30T00:19:57.981Z,291.80
2019-03-30T00:20:58.340Z,291.49
2019-03-30T00:21:58.678Z,292.68
2019-03-30T00:22:59.048Z,291.43
2019-03-30T00:23:59.352Z,291.97
2019-03-30T00:24:59.678Z,291.93
2019-03-30T00:26:00.050Z,291.50
2019-03-30T00:27:00.397Z,291.51
2019-03-30T00:28:00.706Z,292.45
2019-03-30T00:29:01.028Z,292.69
2019-03-30T00:30:01.368Z,292.17
2019-03-30T00:31:01.714Z,291.85
2019-03-30T00:32:02.048Z,292.37
2019-03-30T00:33:02.441Z,292.09
2019-03-30T00:34:02.729Z,292.04
2019-03-30T00:35:03.088Z,291.66
2019-03-30T00:36:03.523Z,291.46
2019-03-30T00:37:03.732Z,291.10
2019-03-30T00:38:04.114Z,291.67
2019-03-30T00:39:04.417Z,292.03
2019-03-30T00:40:04.746Z,291.36
2019-03-30T00:41:05.118Z,291.59
2019-03-30T00:42:05.420Z,291.61
2019-03-30T00:43:05.777Z,291.34
2019-03-30T00:44:06.208Z,291.22
2019-03-30T00:45:06.414Z,291.63
2019-03-30T00:46:10.895Z,290.95
2019-03-30T00:47:07.134Z,292.32
2019-03-30T00:48:07.476Z,292.71
2019-03-30T00:49:07.862Z,292.17
2019-03-30T00:50:08.130Z,292.29
2019-03-30T00:51:08.482Z,292.12
2019-03-30T00:52:08.908Z,291.62
2019-03-30T00:53:09.151Z,291.75
2019-03-30T00:54:09.499Z,291.47
2019-03-30T00:55:09.810Z,291.58
2019-03-30T00:56:10.186Z,292.40
2019-03-30T00:57:10.467Z,291.67
2019-03-30T00:58:10.823Z,292.05
2019-03-30T00:59:11.157Z,291.48
2019-03-30T01:00:11.527Z,291.88
2019-03-30T01:01:11.846Z,292.23
2019-03-30T01:02:12.139Z,291.72
2019-03-30T01:03:12.498Z,292.39
2019-03-30T01:04:12.846Z,291.48
2019-03-30T01:05:13.161Z,291.44
2019-03-30T01:06:13.524Z,292.38
2019-03-30T01:07:13.848Z,292.07
2019-03-30T01:08:14.252Z,292.45
2019-03-30T01:09:14.557Z,292.45
2019-03-30T01:10:14.862Z,292.31
2019-03-30T01:11:15.459Z,292.68
2019-03-30T01:12:15.548Z,292.33
2019-03-30T01:13:15.894Z,292.68
2019-03-30T01:14:16.207Z,292.31
2019-03-30T01:15:16.550Z,292.33
2019-03-30T01:16:16.917Z,292.84
2019-03-30T01:17:17.361Z,291.53
2019-03-30T01:18:17.573Z,292.22
2019-03-30T01:19:17.914Z,292.29
2019-03-30T01:20:18.254Z,292.87
2019-03-30T01:21:18.608Z,292.57
2019-03-30T01:22:18.938Z,291.98
2019-03-30T01:23:19.277Z,292.28
2019-03-30T01:24:19.590Z,292.19
2019-03-30T01:25:20.050Z,291.91
2019-03-30T01:26:20.285Z,292.20
2019-03-30T01:27:20.620Z,292.09
2019-03-30T01:28:20.955Z,292.12
2019-03-30T01:29:21.280Z,292.18
2019-03-30T01:30:23.274Z,291.94
2019-03-30T01:31:21.980Z,292.06
2019-03-30T01:32:22.299Z,291.84
2019-03-30T01:33:22.687Z,291.71
2019-03-30T01:34:22.968Z,291.80
2019-03-30T01:35:23.463Z,291.48
2019-03-30T01:36:23.687Z,291.83
2019-03-30T01:37:24.007Z,291.69
2019-03-30T01:38:24.352Z,292.04
2019-03-30T01:39:24.709Z,291.85
2019-03-30T01:40:25.027Z,292.27
2019-03-30T01:41:25.405Z,292.14
2019-03-30T01:42:25.700Z,291.97
2019-03-30T01:43:26.032Z,292.03
2019-03-30T01:44:26.408Z,292.25
2019-03-30T01:45:26.718Z,292.11
2019-03-30T01:46:27.064Z,291.67
2019-03-30T01:47:27.395Z,292.24
2019-03-30T01:48:27.730Z,291.79
2019-03-30T01:49:28.170Z,292.07
2019-03-30T01:50:28.466Z,292.39
2019-03-30T01:51:28.768Z,292.95
2019-03-30T01:52:29.100Z,292.06
2019-03-30T01:53:29.439Z,291.48
2019-03-30T01:54:29.839Z,291.69
2019-03-30T01:55:30.115Z,291.76
2019-03-30T01:56:30.458Z,292.15
2019-03-30T01:57:30.792Z,292.14
2019-03-30T01:58:31.275Z,291.86
2019-03-30T01:59:31.497Z,292.08
2019-03-30T02:00:31.799Z,291.72
2019-03-30T02:01:32.136Z,291.88
2019-03-30T02:02:32.483Z,291.69
2019-03-30T02:03:32.835Z,292.10
2019-03-30T02:04:33.198Z,291.43
2019-03-30T02:05:33.504Z,291.94
2019-03-30T02:06:33.939Z,292.36
2019-03-30T02:07:34.168Z,292.38
2019-03-30T02:08:34.526Z,291.60
2019-03-30T02:09:34.902Z,292.48
2019-03-30T02:10:35.199Z,292.18
2019-03-30T02:11:35.562Z,292.27
2019-03-30T02:12:35.879Z,291.96
2019-03-30T02:13:36.212Z,291.84
2019-03-30T02:14:36.621Z,292.10
2019-03-30T02:15:36.885Z,292.39
2019-03-30T02:16:37.253Z,292.46
2019-03-30T02:17:37.564Z,292.23
2019-03-30T02:18:37.887Z,292.25
2019-03-30T02:19:38.273Z,292.31
2019-03-30T02:20:38.582Z,292.31
2019-03-30T02:21:38.948Z,292.13
2019-03-30T02:22:39.297Z,292.45
2019-03-30T02:23:39.633Z,292.29
2019-03-30T02:24:39.969Z,292.50
2019-03-30T02:25:40.269Z,292.50
2019-03-30T02:26:40.644Z,291.60
2019-03-30T02:27:40.964Z,292.09
2019-03-30T02:28:41.286Z,292.48
2019-03-30T02:29:41.623Z,291.92
2019-03-30T02:30:42.081Z,291.76
2019-03-30T02:31:42.424Z,291.77
2019-03-30T02:32:42.628Z,292.14
2019-03-30T02:33:42.953Z,291.62
2019-03-30T02:34:43.324Z,291.86
2019-03-30T02:35:43.662Z,291.48
2019-03-30T02:36:43.986Z,291.77
2019-03-30T02:37:44.339Z,291.86
2019-03-30T02:38:44.760Z,291.77
2019-03-30T02:39:45.116Z,292.17
2019-03-30T02:40:45.363Z,291.90
2019-03-30T02:41:45.683Z,291.76
2019-03-30T02:42:46.039Z,292.02
2019-03-30T02:43:46.372Z,291.08
2019-03-30T02:44:46.717Z,292.32
2019-03-30T02:45:47.067Z,291.82
2019-03-30T02:46:47.378Z,291.84
2019-03-30T02:47:47.931Z,291.64
2019-03-30T02:48:48.274Z,292.04
2019-03-30T02:49:48.391Z,291.68
2019-03-30T02:50:50.367Z,291.78
2019-03-30T02:51:49.062Z,292.04
2019-03-30T02:52:49.418Z,291.86
2019-03-30T02:53:49.743Z,291.42
2019-03-30T02:54:50.092Z,291.55
2019-03-30T02:55:50.465Z,291.66
2019-03-30T02:56:50.740Z,292.83
2019-03-30T02:57:51.085Z,292.85
2019-03-30T02:58:51.427Z,293.10
2019-03-30T02:59:51.767Z,292.46
2019-03-30T03:00:52.110Z,292.82
2019-03-30T03:01:52.411Z,292.38
2019-03-30T03:02:52.777Z,292.15
2019-03-30T03:03:53.124Z,292.08
2019-03-30T03:04:53.545Z,292.25
2019-03-30T03:05:53.785Z,292.16
2019-03-30T03:06:54.089Z,292.90
2019-03-30T03:07:54.479Z,291.82
2019-03-30T03:08:54.783Z,292.08
2019-03-30T03:09:55.143Z,291.96
2019-03-30T03:10:55.950Z,293.20
2019-03-30T03:11:55.798Z,292.68
2019-03-30T03:12:56.289Z,292.82
2019-03-30T03:13:56.480Z,292.19
2019-03-30T03:14:56.821Z,292.44
2019-03-30T03:15:57.154Z,292.37
2019-03-30T03:16:57.479Z,292.48
2019-03-30T03:17:57.847Z,292.07
2019-03-30T03:18:58.185Z,292.60
2019-03-30T03:19:58.528Z,292.39
2019-03-30T03:21:07.526Z,291.95
2019-03-30T03:22:00.162Z,292.40
2019-03-30T03:22:59.531Z,292.03
2019-03-30T03:23:59.869Z,291.74
2019-03-30T03:25:00.567Z,292.22
2019-03-30T03:26:00.559Z,291.80
2019-03-30T03:27:00.883Z,292.13
2019-03-30T03:28:01.241Z,292.31
2019-03-30T03:29:01.591Z,292.55
2019-03-30T03:30:01.893Z,292.11
2019-03-30T03:31:02.262Z,292.55
2019-03-30T03:32:02.554Z,292.95
2019-03-30T03:33:02.909Z,292.51
2019-03-30T03:34:03.214Z,292.57
2019-03-30T03:35:03.568Z,292.28
2019-03-30T03:36:03.928Z,291.80
2019-03-30T03:37:04.305Z,292.14
2019-03-30T03:38:04.680Z,291.67
2019-03-30T03:39:04.906Z,292.30
2019-03-30T03:40:05.262Z,292.70
2019-03-30T03:41:05.643Z,292.17
2019-03-30T03:42:06.007Z,292.19
2019-03-30T03:43:06.328Z,291.46
2019-03-30T03:44:06.657Z,291.81
2019-03-30T03:45:06.977Z,291.65
2019-03-30T03:46:07.884Z,291.58
2019-03-30T03:47:07.681Z,291.67
2019-03-30T03:48:08.036Z,292.24
2019-03-30T03:49:08.357Z,291.95
2019-03-30T03:50:08.669Z,292.48
2019-03-30T03:51:24.474Z,292.67
2019-03-30T03:52:10.369Z,292.75
2019-03-30T03:53:09.732Z,292.10
2019-03-30T03:54:10.114Z,292.58
2019-03-30T03:55:10.394Z,292.51
2019-03-30T03:56:10.763Z,292.03
2019-03-30T03:57:11.084Z,291.74
2019-03-30T03:58:11.528Z,291.90
2019-03-30T03:59:11.764Z,292.45
2019-03-30T04:00:12.093Z,291.91
2019-03-30T04:01:12.450Z,292.10
2019-03-30T04:02:12.848Z,291.80
2019-03-30T04:03:13.117Z,291.98
2019-03-30T04:04:13.444Z,292.54
2019-03-30T04:05:13.783Z,291.48
2019-03-30T04:06:14.247Z,291.42
2019-03-30T04:07:14.457Z,291.72
2019-03-30T04:08:14.816Z,291.54
2019-03-30T04:09:15.129Z,291.27
2019-03-30T04:10:15.505Z,291.86
2019-03-30T04:11:15.919Z,291.33
2019-03-30T04:12:16.361Z,291.39
2019-03-30T04:13:16.645Z,291.87
2019-03-30T04:14:16.969Z,291.78
2019-03-30T04:15:17.312Z,291.61
2019-03-30T04:16:17.916Z,291.74
2019-03-30T04:17:18.000Z,292.16
2019-03-30T04:18:18.357Z,292.01
2019-03-30T04:19:18.771Z,291.86
2019-03-30T04:20:19.029Z,291.77
2019-03-30T04:21:19.406Z,291.86
2019-03-30T04:22:19.704Z,292.14
2019-03-30T04:23:20.079Z,292.42
2019-03-30T04:24:20.461Z,292.26
2019-03-30T04:25:20.769Z,292.89
2019-03-30T04:26:21.151Z,292.14
2019-03-30T04:27:21.556Z,291.42
2019-03-30T04:28:22.037Z,291.90
2019-03-30T04:29:22.186Z,291.47
2019-03-30T04:30:22.496Z,292.14
2019-03-30T04:31:22.877Z,291.75
2019-03-30T04:32:23.284Z,291.57
2019-03-30T04:33:23.543Z,291.75
2019-03-30T04:34:23.849Z,291.62
2019-03-30T04:35:24.261Z,291.39
2019-03-30T04:36:24.560Z,291.70
2019-03-30T04:37:24.890Z,291.75
2019-03-30T04:38:25.251Z,291.72
2019-03-30T04:39:25.554Z,292.19
2019-03-30T04:40:25.923Z,291.80
2019-03-30T04:41:26.315Z,292.23
2019-03-30T04:42:26.609Z,292.02
2019-03-30T04:43:27.031Z,292.84
2019-03-30T04:44:27.201Z,292.46
2019-03-30T04:45:27.548Z,292.81
2019-03-30T04:46:27.917Z,292.64
2019-03-30T04:47:28.226Z,291.75
2019-03-30T04:48:29.520Z,292.40
2019-03-30T04:49:28.926Z,291.77
2019-03-30T04:50:29.267Z,292.16
2019-03-30T04:51:29.883Z,291.75
2019-03-30T04:52:30.069Z,291.48
2019-03-30T04:53:30.347Z,291.88
2019-03-30T04:54:30.678Z,291.79
2019-03-30T04:55:31.026Z,292.26
2019-03-30T04:56:31.727Z,291.99
2019-03-30T04:57:31.737Z,291.12
2019-03-30T04:58:32.081Z,291.65
2019-03-30T04:59:32.454Z,292.02
2019-03-30T05:00:32.869Z,292.09
2019-03-30T05:01:33.200Z,292.64
2019-03-30T05:02:33.471Z,292.22
2019-03-30T05:03:33.813Z,292.31
2019-03-30T05:04:34.170Z,291.99
2019-03-30T05:05:34.480Z,292.30
2019-03-30T05:06:34.880Z,292.15
2019-03-30T05:07:35.187Z,292.37
2019-03-30T05:08:35.617Z,291.85
2019-03-30T05:09:35.882Z,292.04
2019-03-30T05:10:36.194Z,292.17
2019-03-30T05:11:36.591Z,292.97
2019-03-30T05:12:36.895Z,292.03
2019-03-30T05:13:37.241Z,292.27
2019-03-30T05:14:37.601Z,292.28
2019-03-30T05:15:37.939Z,291.48
2019-03-30T05:16:38.346Z,292.35
2019-03-30T05:17:46.934Z,291.89
2019-03-30T05:18:39.967Z,292.63
2019-03-30T05:19:39.326Z,291.69
2019-03-30T05:20:39.678Z,292.15
2019-03-30T05:21:40.023Z,292.03
2019-03-30T05:22:40.318Z,291.89
2019-03-30T05:23:40.669Z,291.48
2019-03-30T05:24:41.089Z,292.06
2019-03-30T05:25:41.386Z,291.48
2019-03-30T05:26:41.736Z,292.28
2019-03-30T05:27:42.084Z,291.70
2019-03-30T05:28:42.387Z,291.57
2019-03-30T05:29:42.767Z,291.89
2019-03-30T05:30:43.131Z,291.91
2019-03-30T05:31:43.461Z,292.58
2019-03-30T05:32:43.809Z,291.57
2019-03-30T05:33:44.203Z,292.00
2019-03-30T05:34:44.488Z,291.92
2019-03-30T05:35:44.827Z,291.76
2019-03-30T05:36:45.183Z,292.48
2019-03-30T05:37:45.513Z,292.04
2019-03-30T05:38:45.858Z,291.86
2019-03-30T05:39:46.202Z,292.27
2019-03-30T05:40:46.531Z,292.28
2019-03-30T05:41:47.036Z,291.86
2019-03-30T05:42:47.237Z,292.21
2019-03-30T05:43:47.552Z,292.25
2019-03-30T05:44:47.935Z,292.62
2019-03-30T05:45:48.286Z,292.67
2019-03-30T05:46:48.648Z,292.40
2019-03-30T05:47:48.980Z,292.39
2019-03-30T05:48:49.312Z,292.27
2019-03-30T05:49:49.716Z,292.05
2019-03-30T05:50:49.986Z,292.13
2019-03-30T05:51:50.367Z,291.99
2019-03-30T05:52:50.721Z,292.17
2019-03-30T05:53:51.037Z,291.69
2019-03-30T05:54:51.397Z,292.22
2019-03-30T05:55:51.708Z,291.65
2019-03-30T05:56:52.054Z,291.86
2019-03-30T05:57:52.506Z,291.76
2019-03-30T05:58:52.734Z,291.70
2019-03-30T05:59:55.659Z,291.63
2019-03-30T06:00:53.429Z,291.41
2019-03-30T06:01:53.763Z,291.58
2019-03-30T06:02:54.193Z,291.95
2019-03-30T06:03:54.505Z,291.89
2019-03-30T06:04:54.870Z,291.67
2019-03-30T06:05:55.212Z,292.15
2019-03-30T06:06:55.575Z,291.99
2019-03-30T06:07:55.926Z,291.94
2019-03-30T06:08:56.463Z,291.65
2019-03-30T06:09:56.578Z,292.10
2019-03-30T06:10:56.912Z,291.51
2019-03-30T06:11:57.257Z,291.73
2019-03-30T06:12:57.651Z,291.87
2019-03-30T06:13:57.940Z,291.76
2019-03-30T06:14:58.411Z,291.81
2019-03-30T06:15:58.647Z,291.86
2019-03-30T06:16:58.992Z,291.68
2019-03-30T06:17:59.363Z,291.64
2019-03-30T06:18:59.666Z,291.87
2019-03-30T06:20:00.048Z,291.49
2019-03-30T06:21:00.378Z,292.04
2019-03-30T06:22:00.724Z,291.95
2019-03-30T06:23:01.248Z,291.75
2019-03-30T06:24:01.385Z,291.83
2019-03-30T06:25:01.770Z,291.71
2019-03-30T06:26:02.091Z,292.14
2019-03-30T06:27:02.427Z,291.45
2019-03-30T06:28:02.824Z,291.84
2019-03-30T06:29:03.125Z,291.97
2019-03-30T06:30:03.481Z,291.41
2019-03-30T06:31:03.864Z,292.20
2019-03-30T06:32:04.140Z,292.75
2019-03-30T06:33:04.529Z,292.70
2019-03-30T06:34:04.831Z,292.62
2019-03-30T06:35:05.198Z,292.25
2019-03-30T06:36:05.502Z,292.43
2019-03-30T06:37:05.860Z,292.57
2019-03-30T06:38:06.265Z,292.29
2019-03-30T06:39:06.584Z,292.23
2019-03-30T06:40:06.922Z,292.12
2019-03-30T06:41:07.232Z,292.09
2019-03-30T06:42:07.590Z,292.15
2019-03-30T06:43:08.162Z,291.95
2019-03-30T06:44:08.277Z,292.04
2019-03-30T06:45:08.626Z,292.11
2019-03-30T06:46:08.966Z,292.13
2019-03-30T06:47:09.322Z,292.53
2019-03-30T06:48:09.802Z,292.66
2019-03-30T06:49:10.003Z,292.33
2019-03-30T06:50:10.356Z,291.96
2019-03-30T06:51:10.675Z,292.27
2019-03-30T06:52:11.053Z,291.91
2019-03-30T06:53:11.409Z,292.02
2019-03-30T06:54:14.555Z,292.53
2019-03-30T06:55:12.168Z,292.65
2019-03-30T06:56:12.541Z,292.66
2019-03-30T06:57:12.770Z,292.95
2019-03-30T06:58:13.126Z,293.01
2019-03-30T06:59:13.461Z,292.50
2019-03-30T07:00:13.796Z,292.95
2019-03-30T07:01:14.144Z,292.56
2019-03-30T07:02:14.471Z,292.72
2019-03-30T07:03:14.846Z,292.03
2019-03-30T07:04:15.250Z,292.25
2019-03-30T07:05:15.519Z,292.26
2019-03-30T07:06:15.889Z,292.02
2019-03-30T07:07:16.227Z,292.28
2019-03-30T07:08:16.575Z,293.22
2019-03-30T07:09:16.928Z,292.75
2019-03-30T07:10:17.261Z,292.56
2019-03-30T07:11:21.347Z,292.34
2019-03-30T07:12:18.014Z,292.56
2019-03-30T07:13:18.289Z,291.96
2019-03-30T07:14:18.631Z,292.35
2019-03-30T07:15:18.982Z,292.10
2019-03-30T07:16:19.347Z,292.46
2019-03-30T07:17:19.673Z,292.42
2019-03-30T07:18:20.041Z,292.31
2019-03-30T07:19:20.375Z,292.18
2019-03-30T07:20:20.718Z,292.54
2019-03-30T07:21:21.161Z,292.15
2019-03-30T07:22:21.420Z,292.29
2019-03-30T07:23:21.759Z,292.08
2019-03-30T07:24:22.068Z,291.79
2019-03-30T07:25:22.414Z,292.35
2019-03-30T07:26:22.787Z,291.77
2019-03-30T07:27:23.115Z,292.01
2019-03-30T07:28:23.481Z,292.39
2019-03-30T07:29:23.909Z,292.42
2019-03-30T07:30:24.145Z,292.73
2019-03-30T07:31:24.516Z,292.04
2019-03-30T07:32:24.848Z,292.49
2019-03-30T07:33:25.221Z,292.24
2019-03-30T07:34:25.552Z,292.29
2019-03-30T07:35:25.874Z,292.08
2019-03-30T07:36:26.237Z,292.39
2019-03-30T07:37:26.663Z,292.30
2019-03-30T07:38:26.924Z,292.37
2019-03-30T07:39:27.286Z,292.74
2019-03-30T07:40:27.597Z,292.60
2019-03-30T07:41:27.945Z,292.19
2019-03-30T07:42:28.288Z,292.69
2019-03-30T07:43:28.653Z,291.90
2019-03-30T07:44:28.996Z,292.12
2019-03-30T07:45:29.355Z,291.97
2019-03-30T07:46:29.665Z,291.56
2019-03-30T07:47:29.986Z,292.03
2019-03-30T07:48:30.615Z,291.66
2019-03-30T07:49:30.681Z,291.71
2019-03-30T07:50:31.029Z,291.50
2019-03-30T07:51:33.149Z,292.16
2019-03-30T07:52:31.761Z,292.14
2019-03-30T07:53:43.573Z,292.55
2019-03-30T07:54:33.433Z,291.83
2019-03-30T07:55:32.765Z,291.73
2019-03-30T07:56:33.145Z,291.87
2019-03-30T07:57:33.445Z,292.02
2019-03-30T07:58:33.797Z,292.15
2019-03-30T07:59:34.153Z,292.21
2019-03-30T08:00:34.515Z,291.66
2019-03-30T08:01:34.861Z,292.46
2019-03-30T08:02:35.298Z,292.51
2019-03-30T08:03:35.512Z,293.05
2019-03-30T08:04:35.883Z,293.35
2019-03-30T08:05:36.305Z,292.46
2019-03-30T08:06:36.595Z,291.95
2019-03-30T08:07:36.915Z,292.46
2019-03-30T08:08:37.262Z,292.00
2019-03-30T08:09:37.591Z,291.65
2019-03-30T08:10:38.079Z,292.02
2019-03-30T08:11:38.323Z,290.77
2019-03-30T08:12:38.645Z,291.31
2019-03-30T08:13:38.984Z,291.36
2019-03-30T08:14:39.408Z,291.75
2019-03-30T08:15:39.703Z,291.18
2019-03-30T08:16:40.070Z,291.09
2019-03-30T08:17:40.396Z,291.02
2019-03-30T08:18:40.763Z,290.88
2019-03-30T08:19:41.085Z,290.92
2019-03-30T08:20:41.408Z,291.64
2019-03-30T08:21:41.782Z,291.10
2019-03-30T08:22:42.106Z,290.99
2019-03-30T08:23:42.452Z,291.18
2019-03-30T08:24:42.813Z,291.09
2019-03-30T08:25:43.152Z,290.87
2019-03-30T08:26:43.522Z,291.40
2019-03-30T08:27:43.810Z,289.96
2019-03-30T08:28:44.164Z,290.44
2019-03-30T08:29:44.528Z,290.76
2019-03-30T08:30:44.863Z,291.31
2019-03-30T08:31:45.219Z,290.70
2019-03-30T08:32:45.529Z,290.39
2019-03-30T08:33:45.896Z,291.50
2019-03-30T08:34:46.281Z,291.65
2019-03-30T08:35:46.736Z,289.92
2019-03-30T08:36:46.968Z,290.50
2019-03-30T08:37:47.352Z,289.47
2019-03-30T08:38:47.647Z,290.65
2019-03-30T08:39:48.020Z,290.12
2019-03-30T08:40:48.444Z,297.73
2019-03-30T08:41:49.032Z,292.41
2019-03-30T08:42:49.145Z,291.60
2019-03-30T08:43:50.126Z,293.12
2019-03-30T08:44:50.032Z,291.23
2019-03-30T08:45:51.376Z,291.41
2019-03-30T08:46:50.425Z,290.58
2019-03-30T08:47:50.748Z,291.00
2019-03-30T08:48:51.073Z,290.58
2019-03-30T08:49:51.450Z,290.97
2019-03-30T08:50:51.805Z,291.58
2019-03-30T08:51:53.033Z,291.77
2019-03-30T08:52:52.451Z,290.89
2019-03-30T08:53:54.849Z,289.76
2019-03-30T08:54:53.595Z,290.04
2019-03-30T08:55:53.970Z,291.20
2019-03-30T08:56:53.850Z,291.64
2019-03-30T08:57:54.177Z,290.76
2019-03-30T08:58:54.513Z,290.05
2019-03-30T08:59:54.915Z,288.68
2019-03-30T09:00:55.210Z,289.57
2019-03-30T09:01:55.584Z,289.49
2019-03-30T09:02:55.887Z,289.22
2019-03-30T09:03:57.536Z,289.98
2019-03-30T09:05:06.030Z,289.47
2019-03-30T09:06:00.037Z,288.82
2019-03-30T09:06:57.294Z,289.01
2019-03-30T09:07:57.661Z,288.57
2019-03-30T09:09:01.129Z,289.03
2019-03-30T09:09:58.338Z,287.94
2019-03-30T09:10:58.666Z,287.93
2019-03-30T09:11:58.997Z,287.52
2019-03-30T09:12:59.353Z,291.64
2019-03-30T09:14:06.051Z,290.99
2019-03-30T09:15:00.172Z,288.52
2019-03-30T09:16:01.576Z,290.97
2019-03-30T09:17:01.948Z,290.09
2019-03-30T09:18:01.108Z,289.37
2019-03-30T09:19:02.128Z,288.79
2019-03-30T09:20:05.537Z,288.19
2019-03-30T09:21:02.144Z,288.01
2019-03-30T09:22:02.575Z,288.06
2019-03-30T09:23:03.051Z,288.66
2019-03-30T09:24:10.111Z,287.96
2019-03-30T09:25:03.603Z,288.67
2019-03-30T09:26:07.348Z,287.68
2019-03-30T09:27:05.046Z,287.35
2019-03-30T09:28:08.866Z,288.14
2019-03-30T09:29:05.524Z,286.40
2019-03-30T09:30:06.005Z,286.94
2019-03-30T09:31:06.043Z,285.39
2019-03-30T09:32:14.253Z,286.01
2019-03-30T09:33:07.305Z,286.11
2019-03-30T09:34:07.045Z,286.69
2019-03-30T09:35:06.952Z,287.51
2019-03-30T09:36:07.374Z,287.54
2019-03-30T09:37:08.825Z,289.37
2019-03-30T09:38:10.394Z,287.63
2019-03-30T09:39:09.372Z,286.96
2019-03-30T09:40:08.675Z,287.79
2019-03-30T09:41:10.039Z,288.65
2019-03-30T09:42:16.196Z,287.60
2019-03-30T09:43:12.049Z,288.70
2019-03-30T09:44:10.550Z,286.91
2019-03-30T09:45:14.799Z,286.38
2019-03-30T09:46:12.354Z,285.84
2019-03-30T09:47:11.566Z,286.23
2019-03-30T09:48:11.466Z,286.56
2019-03-30T09:49:11.794Z,286.76
2019-03-30T09:50:13.042Z,286.54
2019-03-30T09:51:12.556Z,287.02
2019-03-30T09:52:13.690Z,286.33
2019-03-30T09:53:14.573Z,287.14
2019-03-30T09:54:23.133Z,286.36
2019-03-30T09:55:14.870Z,297.33
2019-03-30T09:56:15.071Z,296.96
2019-03-30T09:57:14.564Z,295.24
2019-03-30T09:58:14.969Z,291.25
2019-03-30T09:59:15.214Z,288.82
2019-03-30T10:00:15.558Z,288.78
2019-03-30T10:01:15.905Z,287.75
2019-03-30T10:02:16.242Z,286.00
2019-03-30T10:03:16.609Z,287.49
2019-03-30T10:04:16.976Z,284.53
2019-03-30T10:05:17.299Z,284.88
2019-03-30T10:06:17.735Z,286.60
2019-03-30T10:07:19.651Z,287.63
2019-03-30T10:08:18.321Z,286.34
2019-03-30T10:09:18.643Z,286.04
2019-03-30T10:10:19.554Z,285.36
2019-03-30T10:11:19.563Z,285.90
2019-03-30T10:12:19.665Z,286.33
2019-03-30T10:13:21.698Z,286.73
2019-03-30T10:14:20.435Z,285.98
2019-03-30T10:15:21.566Z,287.44
2019-03-30T10:16:21.307Z,285.78
2019-03-30T10:17:21.405Z,285.98
2019-03-30T10:18:21.748Z,285.13
2019-03-30T10:19:22.097Z,285.80
2019-03-30T10:20:22.460Z,285.76
2019-03-30T10:21:22.855Z,285.21
2019-03-30T10:22:23.217Z,286.36
2019-03-30T10:23:23.578Z,286.01
2019-03-30T10:24:36.998Z,286.32
2019-03-30T10:25:25.262Z,286.56
2019-03-30T10:26:24.643Z,287.64
2019-03-30T10:27:24.956Z,286.40
2019-03-30T10:28:25.319Z,287.31
2019-03-30T10:29:26.070Z,286.06
2019-03-30T10:30:25.985Z,287.21
2019-03-30T10:31:26.528Z,285.38
2019-03-30T10:32:28.439Z,287.91
2019-03-30T10:33:27.558Z,286.09
2019-03-30T10:34:28.061Z,287.65
2019-03-30T10:35:27.737Z,286.93
2019-03-30T10:36:28.124Z,291.19
2019-03-30T10:37:28.405Z,292.55
2019-03-30T10:38:28.778Z,287.80
2019-03-30T10:39:29.188Z,288.01
2019-03-30T10:40:29.433Z,286.16
2019-03-30T10:41:30.560Z,286.76
2019-03-30T10:42:32.077Z,286.64
2019-03-30T10:43:31.062Z,285.70
2019-03-30T10:44:32.573Z,285.99
2019-03-30T10:45:31.345Z,286.08
2019-03-30T10:46:33.136Z,287.36
2019-03-30T10:47:31.945Z,287.24
2019-03-30T10:48:32.563Z,287.07
2019-03-30T10:49:32.539Z,286.26
2019-03-30T10:50:32.877Z,285.58
2019-03-30T10:51:49.806Z,286.89
2019-03-30T10:52:33.609Z,285.10
2019-03-30T10:53:33.952Z,287.05
2019-03-30T10:54:34.281Z,285.89
2019-03-30T10:55:35.065Z,290.83
2019-03-30T10:56:35.006Z,286.89
2019-03-30T10:57:35.568Z,286.16
2019-03-30T10:58:35.682Z,285.89
2019-03-30T10:59:36.009Z,287.25
2019-03-30T11:00:36.348Z,285.58
2019-03-30T11:01:36.734Z,285.34
2019-03-30T11:02:37.038Z,285.56
2019-03-30T11:03:37.421Z,286.63
2019-03-30T11:04:37.888Z,286.79
2019-03-30T11:05:38.320Z,288.35
2019-03-30T11:06:38.451Z,287.75
2019-03-30T11:07:38.793Z,286.83
2019-03-30T11:08:39.116Z,286.38
2019-03-30T11:09:40.075Z,287.40
2019-03-30T11:10:39.810Z,286.52
2019-03-30T11:11:40.171Z,285.24
2019-03-30T11:12:41.578Z,285.92
2019-03-30T11:13:40.841Z,285.53
2019-03-30T11:14:41.272Z,284.39
2019-03-30T11:15:41.532Z,286.49
2019-03-30T11:16:54.075Z,286.59
2019-03-30T11:17:43.248Z,288.04
2019-03-30T11:18:42.598Z,285.99
2019-03-30T11:19:42.903Z,284.20
2019-03-30T11:20:43.327Z,285.42
2019-03-30T11:21:43.608Z,285.80
2019-03-30T11:22:43.953Z,284.97
2019-03-30T11:23:44.290Z,282.57
2019-03-30T11:24:44.634Z,286.11
2019-03-30T11:25:45.074Z,285.42
2019-03-30T11:26:45.340Z,286.69
2019-03-30T11:27:45.693Z,283.84
2019-03-30T11:28:46.088Z,285.24
2019-03-30T11:29:46.357Z,285.99
2019-03-30T11:30:46.683Z,284.43
2019-03-30T11:31:47.068Z,286.46
2019-03-30T11:32:47.448Z,283.96
2019-03-30T11:33:47.766Z,282.70
2019-03-30T11:34:48.129Z,284.41
2019-03-30T11:35:48.446Z,282.71
2019-03-30T11:36:48.824Z,283.26
2019-03-30T11:37:49.225Z,286.07
2019-03-30T11:38:49.485Z,282.97
2019-03-30T11:39:49.851Z,284.44
2019-03-30T11:40:50.176Z,284.87
2019-03-30T11:41:50.556Z,285.65
2019-03-30T11:42:50.877Z,286.11
2019-03-30T11:43:51.214Z,285.01
2019-03-30T11:44:51.588Z,282.82
2019-03-30T11:45:52.045Z,285.94
2019-03-30T11:46:52.295Z,286.00
2019-03-30T11:47:52.628Z,285.79
2019-03-30T11:48:52.993Z,285.17
2019-03-30T11:49:53.347Z,284.67
2019-03-30T11:50:53.671Z,285.50
2019-03-30T11:51:54.042Z,284.91
2019-03-30T11:52:54.340Z,285.14
2019-03-30T11:53:54.840Z,286.27
2019-03-30T11:54:55.106Z,286.02
2019-03-30T11:55:55.420Z,287.26
2019-03-30T11:56:55.770Z,286.26
2019-03-30T11:57:56.094Z,285.52
2019-03-30T11:58:56.445Z,288.57
2019-03-30T11:59:56.804Z,287.01
2019-03-30T12:00:57.124Z,286.32
2019-03-30T12:01:57.538Z,285.36
2019-03-30T12:02:57.796Z,284.99
2019-03-30T12:03:58.148Z,286.34
2019-03-30T12:04:58.518Z,285.69
2019-03-30T12:05:58.859Z,287.66
2019-03-30T12:06:59.263Z,285.40
2019-03-30T12:07:59.544Z,286.06
2019-03-30T12:09:03.728Z,287.07
2019-03-30T12:10:03.585Z,286.79
2019-03-30T12:11:01.594Z,287.79
2019-03-30T12:12:02.277Z,285.92
2019-03-30T12:13:08.587Z,288.01
2019-03-30T12:14:14.590Z,286.29
2019-03-30T12:15:03.120Z,292.12
2019-03-30T12:16:03.173Z,287.72
2019-03-30T12:17:02.690Z,285.82
2019-03-30T12:18:05.591Z,287.57
2019-03-30T12:19:06.066Z,288.25
2019-03-30T12:20:04.588Z,287.31
2019-03-30T12:21:04.047Z,285.85
2019-03-30T12:22:04.428Z,283.91
2019-03-30T12:23:04.756Z,285.60
2019-03-30T12:24:05.108Z,284.93
2019-03-30T12:25:05.470Z,286.05
2019-03-30T12:26:05.776Z,287.43
2019-03-30T12:27:06.258Z,288.65
2019-03-30T12:28:06.494Z,287.90
2019-03-30T12:29:06.840Z,287.63
2019-03-30T12:30:07.190Z,286.98
2019-03-30T12:31:07.517Z,287.13
2019-03-30T12:32:07.846Z,286.54
2019-03-30T12:33:08.223Z,285.82